sensor_id;sensor_type;location;lat;lon;timestamp;P1;durP1;ratioP1;P2;durP2;ratioP2
2940;SDS011;1480;51.456;6.670;2022-10-03T00:02:18;8.47;;;3.30;;
2940;SDS011;1480;51.456;6.670;2022-10-03T00:05:05;8.20;;;3.60;;
2940;SDS011;1480;51.456;6.670;2022-10-03T00:07:48;5.30;;;3.93;;
2940;SDS011;1480;51.456;6.670;2022-10-03T00:10:26;10.40;;;4.53;;
2940;SDS011;1480;51.456;6.670;2022-10-03T00:13:02;7.87;;;4.70;;
2940;SDS011;1480;51.456;6.670;2022-10-03T00:15:40;7.10;;;3.20;;
2940;SDS011;1480;51.456;6.670;2022-10-03T00:18:16;8.60;;;3.47;;
2940;SDS011;1480;51.456;6.670;2022-10-03T00:21:02;8.20;;;4.37;;
2940;SDS011;1480;51.456;6.670;2022-10-03T00:23:41;7.03;;;3.40;;
2940;SDS011;1480;51.456;6.670;2022-10-03T00:26:16;10.67;;;4.70;;
2940;SDS011;1480;51.456;6.670;2022-10-03T00:28:58;6.70;;;3.13;;
2940;SDS011;1480;51.456;6.670;2022-10-03T00:31:49;8.80;;;3.50;;
2940;SDS011;1480;51.456;6.670;2022-10-03T00:34:24;5.47;;;3.60;;
2940;SDS011;1480;51.456;6.670;2022-10-03T00:37:06;6.80;;;3.73;;
2940;SDS011;1480;51.456;6.670;2022-10-03T00:39:42;12.67;;;4.20;;
2940;SDS011;1480;51.456;6.670;2022-10-03T00:49:05;5.87;;;3.30;;
2940;SDS011;1480;51.456;6.670;2022-10-03T00:52:15;10.87;;;3.90;;
2940;SDS011;1480;51.456;6.670;2022-10-03T00:54:59;41.60;;;17.63;;
2940;SDS011;1480;51.456;6.670;2022-10-03T00:57:46;8.70;;;3.20;;
2940;SDS011;1480;51.456;6.670;2022-10-03T01:00:26;8.50;;;3.70;;
2940;SDS011;1480;51.456;6.670;2022-10-03T01:03:00;9.93;;;4.17;;
2940;SDS011;1480;51.456;6.670;2022-10-03T01:05:41;9.83;;;3.50;;
2940;SDS011;1480;51.456;6.670;2022-10-03T01:08:30;9.63;;;3.80;;
2940;SDS011;1480;51.456;6.670;2022-10-03T01:11:11;8.10;;;3.37;;
2940;SDS011;1480;51.456;6.670;2022-10-03T01:13:51;11.53;;;4.30;;
2940;SDS011;1480;51.456;6.670;2022-10-03T01:16:31;8.63;;;3.17;;
2940;SDS011;1480;51.456;6.670;2022-10-03T01:19:07;9.80;;;3.80;;
2940;SDS011;1480;51.456;6.670;2022-10-03T01:21:54;9.70;;;4.63;;
2940;SDS011;1480;51.456;6.670;2022-10-03T01:24:43;7.33;;;3.43;;
2940;SDS011;1480;51.456;6.670;2022-10-03T01:27:20;9.97;;;3.90;;
2940;SDS011;1480;51.456;6.670;2022-10-03T01:29:55;8.73;;;3.57;;
2940;SDS011;1480;51.456;6.670;2022-10-03T01:32:45;7.80;;;3.93;;
2940;SDS011;1480;51.456;6.670;2022-10-03T01:35:21;9.33;;;4.20;;
2940;SDS011;1480;51.456;6.670;2022-10-03T01:38:01;8.20;;;4.17;;
2940;SDS011;1480;51.456;6.670;2022-10-03T01:40:34;12.20;;;3.77;;
2940;SDS011;1480;51.456;6.670;2022-10-03T01:43:07;11.50;;;3.70;;
2940;SDS011;1480;51.456;6.670;2022-10-03T01:45:47;10.47;;;4.03;;
2940;SDS011;1480;51.456;6.670;2022-10-03T01:48:27;10.27;;;4.40;;
2940;SDS011;1480;51.456;6.670;2022-10-03T01:51:00;8.10;;;3.43;;
2940;SDS011;1480;51.456;6.670;2022-10-03T01:53:39;5.67;;;3.50;;
2940;SDS011;1480;51.456;6.670;2022-10-03T01:56:23;10.80;;;4.10;;
2940;SDS011;1480;51.456;6.670;2022-10-03T01:58:59;3.30;;;2.80;;
2940;SDS011;1480;51.456;6.670;2022-10-03T02:01:35;7.23;;;3.50;;
2940;SDS011;1480;51.456;6.670;2022-10-03T02:04:13;10.33;;;3.87;;
2940;SDS011;1480;51.456;6.670;2022-10-03T02:06:49;7.80;;;3.77;;
2940;SDS011;1480;51.456;6.670;2022-10-03T02:09:26;7.70;;;4.00;;
2940;SDS011;1480;51.456;6.670;2022-10-03T02:12:05;8.50;;;3.83;;
2940;SDS011;1480;51.456;6.670;2022-10-03T02:14:38;9.17;;;3.90;;
2940;SDS011;1480;51.456;6.670;2022-10-03T02:17:19;9.20;;;3.60;;
2940;SDS011;1480;51.456;6.670;2022-10-03T02:19:54;6.20;;;3.30;;
2940;SDS011;1480;51.456;6.670;2022-10-03T02:22:28;8.00;;;4.13;;
2940;SDS011;1480;51.456;6.670;2022-10-03T02:25:02;7.43;;;3.80;;
2940;SDS011;1480;51.456;6.670;2022-10-03T02:30:41;7.60;;;4.20;;
2940;SDS011;1480;51.456;6.670;2022-10-03T02:33:33;9.47;;;4.00;;
2940;SDS011;1480;51.456;6.670;2022-10-03T02:36:42;13.30;;;4.07;;
2940;SDS011;1480;51.456;6.670;2022-10-03T02:39:29;10.40;;;3.70;;
2940;SDS011;1480;51.456;6.670;2022-10-03T02:42:24;9.23;;;3.83;;
2940;SDS011;1480;51.456;6.670;2022-10-03T02:48:20;8.43;;;4.30;;
2940;SDS011;1480;51.456;6.670;2022-10-03T02:54:28;8.70;;;4.10;;
2940;SDS011;1480;51.456;6.670;2022-10-03T02:57:31;8.17;;;3.83;;
2940;SDS011;1480;51.456;6.670;2022-10-03T03:00:30;8.43;;;4.53;;
2940;SDS011;1480;51.456;6.670;2022-10-03T03:03:17;7.73;;;4.07;;
2940;SDS011;1480;51.456;6.670;2022-10-03T03:09:01;9.77;;;4.10;;
2940;SDS011;1480;51.456;6.670;2022-10-03T03:12:16;8.33;;;4.07;;
2940;SDS011;1480;51.456;6.670;2022-10-03T03:18:10;6.73;;;3.97;;
2940;SDS011;1480;51.456;6.670;2022-10-03T03:20:50;7.20;;;3.73;;
2940;SDS011;1480;51.456;6.670;2022-10-03T03:23:32;7.23;;;3.80;;
2940;SDS011;1480;51.456;6.670;2022-10-03T03:26:18;8.57;;;4.27;;
2940;SDS011;1480;51.456;6.670;2022-10-03T03:29:12;10.20;;;4.63;;
2940;SDS011;1480;51.456;6.670;2022-10-03T03:31:48;8.43;;;4.67;;
2940;SDS011;1480;51.456;6.670;2022-10-03T03:34:28;7.87;;;3.40;;
2940;SDS011;1480;51.456;6.670;2022-10-03T03:37:03;11.77;;;5.57;;
2940;SDS011;1480;51.456;6.670;2022-10-03T03:39:44;7.53;;;3.40;;
2940;SDS011;1480;51.456;6.670;2022-10-03T03:45:28;10.80;;;4.63;;
2940;SDS011;1480;51.456;6.670;2022-10-03T03:48:09;7.37;;;4.03;;
2940;SDS011;1480;51.456;6.670;2022-10-03T03:50:51;8.50;;;3.17;;
2940;SDS011;1480;51.456;6.670;2022-10-03T03:53:31;8.10;;;3.70;;
2940;SDS011;1480;51.456;6.670;2022-10-03T03:59:12;7.10;;;3.90;;
2940;SDS011;1480;51.456;6.670;2022-10-03T04:01:57;10.07;;;4.23;;
2940;SDS011;1480;51.456;6.670;2022-10-03T04:04:39;12.53;;;3.77;;
2940;SDS011;1480;51.456;6.670;2022-10-03T04:07:17;8.20;;;3.90;;
2940;SDS011;1480;51.456;6.670;2022-10-03T04:09:56;7.03;;;4.40;;
2940;SDS011;1480;51.456;6.670;2022-10-03T04:12:52;9.63;;;4.50;;
2940;SDS011;1480;51.456;6.670;2022-10-03T04:15:38;7.50;;;3.53;;
2940;SDS011;1480;51.456;6.670;2022-10-03T04:21:41;7.30;;;3.80;;
2940;SDS011;1480;51.456;6.670;2022-10-03T04:24:34;4.53;;;3.30;;
2940;SDS011;1480;51.456;6.670;2022-10-03T04:27:28;7.63;;;4.43;;
2940;SDS011;1480;51.456;6.670;2022-10-03T04:30:07;4.83;;;3.57;;
2940;SDS011;1480;51.456;6.670;2022-10-03T04:32:52;9.40;;;4.00;;
2940;SDS011;1480;51.456;6.670;2022-10-03T04:38:37;11.50;;;3.70;;
2940;SDS011;1480;51.456;6.670;2022-10-03T04:41:09;9.73;;;3.90;;
2940;SDS011;1480;51.456;6.670;2022-10-03T04:43:48;7.10;;;4.23;;
2940;SDS011;1480;51.456;6.670;2022-10-03T04:46:24;7.57;;;4.67;;
2940;SDS011;1480;51.456;6.670;2022-10-03T04:48:58;6.63;;;3.80;;
2940;SDS011;1480;51.456;6.670;2022-10-03T04:51:41;9.73;;;4.27;;
2940;SDS011;1480;51.456;6.670;2022-10-03T04:54:17;8.83;;;3.90;;
2940;SDS011;1480;51.456;6.670;2022-10-03T04:56:51;7.80;;;5.13;;
2940;SDS011;1480;51.456;6.670;2022-10-03T04:59:25;7.50;;;3.57;;
2940;SDS011;1480;51.456;6.670;2022-10-03T05:02:08;8.63;;;4.03;;
2940;SDS011;1480;51.456;6.670;2022-10-03T05:04:50;8.43;;;3.50;;
2940;SDS011;1480;51.456;6.670;2022-10-03T05:07:30;34.80;;;5.23;;
2940;SDS011;1480;51.456;6.670;2022-10-03T05:10:15;6.20;;;3.67;;
2940;SDS011;1480;51.456;6.670;2022-10-03T05:12:53;6.57;;;3.73;;
2940;SDS011;1480;51.456;6.670;2022-10-03T05:15:26;8.63;;;3.97;;
2940;SDS011;1480;51.456;6.670;2022-10-03T05:17:59;11.43;;;4.40;;
2940;SDS011;1480;51.456;6.670;2022-10-03T05:20:36;7.17;;;3.40;;
2940;SDS011;1480;51.456;6.670;2022-10-03T05:23:22;6.37;;;3.90;;
2940;SDS011;1480;51.456;6.670;2022-10-03T05:26:04;7.57;;;4.23;;
2940;SDS011;1480;51.456;6.670;2022-10-03T05:28:38;13.17;;;4.40;;
2940;SDS011;1480;51.456;6.670;2022-10-03T05:31:16;6.10;;;3.70;;
2940;SDS011;1480;51.456;6.670;2022-10-03T05:33:53;8.00;;;4.57;;
2940;SDS011;1480;51.456;6.670;2022-10-03T05:36:30;12.47;;;4.13;;
2940;SDS011;1480;51.456;6.670;2022-10-03T05:39:23;8.73;;;3.70;;
2940;SDS011;1480;51.456;6.670;2022-10-03T05:41:54;5.57;;;4.17;;
2940;SDS011;1480;51.456;6.670;2022-10-03T05:44:37;7.60;;;3.67;;
2940;SDS011;1480;51.456;6.670;2022-10-03T05:47:08;6.20;;;4.07;;
2940;SDS011;1480;51.456;6.670;2022-10-03T05:53:03;12.20;;;5.60;;
2940;SDS011;1480;51.456;6.670;2022-10-03T05:55:44;10.43;;;5.93;;
2940;SDS011;1480;51.456;6.670;2022-10-03T05:58:29;10.23;;;5.30;;
2940;SDS011;1480;51.456;6.670;2022-10-03T06:01:07;9.20;;;4.63;;
2940;SDS011;1480;51.456;6.670;2022-10-03T06:06:50;8.03;;;5.67;;
2940;SDS011;1480;51.456;6.670;2022-10-03T06:09:37;12.33;;;5.20;;
2940;SDS011;1480;51.456;6.670;2022-10-03T06:12:18;9.50;;;5.43;;
2940;SDS011;1480;51.456;6.670;2022-10-03T06:14:58;11.83;;;5.60;;
2940;SDS011;1480;51.456;6.670;2022-10-03T06:17:56;8.53;;;5.90;;
2940;SDS011;1480;51.456;6.670;2022-10-03T06:20:42;10.27;;;5.00;;
2940;SDS011;1480;51.456;6.670;2022-10-03T06:26:47;12.37;;;4.57;;
2940;SDS011;1480;51.456;6.670;2022-10-03T06:30:03;8.53;;;5.20;;
2940;SDS011;1480;51.456;6.670;2022-10-03T06:42:09;10.60;;;6.30;;
2940;SDS011;1480;51.456;6.670;2022-10-03T06:45:03;9.50;;;6.30;;
2940;SDS011;1480;51.456;6.670;2022-10-03T06:48:02;11.43;;;6.07;;
2940;SDS011;1480;51.456;6.670;2022-10-03T06:50:49;11.40;;;6.90;;
2940;SDS011;1480;51.456;6.670;2022-10-03T06:53:39;8.53;;;6.20;;
2940;SDS011;1480;51.456;6.670;2022-10-03T06:59:29;11.70;;;6.13;;
2940;SDS011;1480;51.456;6.670;2022-10-03T07:02:20;14.43;;;6.60;;
2940;SDS011;1480;51.456;6.670;2022-10-03T07:05:12;11.70;;;7.27;;
2940;SDS011;1480;51.456;6.670;2022-10-03T07:08:18;9.87;;;5.20;;
2940;SDS011;1480;51.456;6.670;2022-10-03T07:11:27;15.53;;;7.07;;
2940;SDS011;1480;51.456;6.670;2022-10-03T07:14:17;14.63;;;7.63;;
2940;SDS011;1480;51.456;6.670;2022-10-03T07:17:19;13.47;;;7.03;;
2940;SDS011;1480;51.456;6.670;2022-10-03T07:23:19;17.53;;;8.20;;
2940;SDS011;1480;51.456;6.670;2022-10-03T07:29:13;7.17;;;5.43;;
2940;SDS011;1480;51.456;6.670;2022-10-03T07:31:49;10.83;;;6.97;;
2940;SDS011;1480;51.456;6.670;2022-10-03T07:37:35;13.87;;;6.97;;
2940;SDS011;1480;51.456;6.670;2022-10-03T07:40:50;11.63;;;7.33;;
2940;SDS011;1480;51.456;6.670;2022-10-03T07:43:46;10.87;;;7.13;;
2940;SDS011;1480;51.456;6.670;2022-10-03T07:46:45;11.77;;;5.57;;
2940;SDS011;1480;51.456;6.670;2022-10-03T07:49:43;12.03;;;6.57;;
2940;SDS011;1480;51.456;6.670;2022-10-03T07:52:39;9.43;;;7.00;;
2940;SDS011;1480;51.456;6.670;2022-10-03T07:55:26;13.37;;;6.03;;
2940;SDS011;1480;51.456;6.670;2022-10-03T08:01:05;10.63;;;6.47;;
2940;SDS011;1480;51.456;6.670;2022-10-03T08:03:55;16.93;;;6.57;;
2940;SDS011;1480;51.456;6.670;2022-10-03T08:06:43;8.93;;;6.20;;
2940;SDS011;1480;51.456;6.670;2022-10-03T08:15:22;10.40;;;6.03;;
2940;SDS011;1480;51.456;6.670;2022-10-03T08:18:03;11.70;;;5.60;;
2940;SDS011;1480;51.456;6.670;2022-10-03T08:20:58;9.20;;;6.37;;
2940;SDS011;1480;51.456;6.670;2022-10-03T08:26:49;14.67;;;6.67;;
2940;SDS011;1480;51.456;6.670;2022-10-03T08:29:28;10.10;;;5.90;;
2940;SDS011;1480;51.456;6.670;2022-10-03T08:32:20;13.07;;;6.30;;
2940;SDS011;1480;51.456;6.670;2022-10-03T08:35:18;13.10;;;7.40;;
2940;SDS011;1480;51.456;6.670;2022-10-03T08:47:19;20.33;;;6.90;;
2940;SDS011;1480;51.456;6.670;2022-10-03T08:50:15;12.70;;;6.63;;
2940;SDS011;1480;51.456;6.670;2022-10-03T08:53:07;9.70;;;6.03;;
2940;SDS011;1480;51.456;6.670;2022-10-03T08:56:01;9.47;;;5.03;;
2940;SDS011;1480;51.456;6.670;2022-10-03T09:05:17;9.97;;;6.40;;
2940;SDS011;1480;51.456;6.670;2022-10-03T09:08:12;14.00;;;5.90;;
2940;SDS011;1480;51.456;6.670;2022-10-03T09:11:02;11.73;;;5.80;;
2940;SDS011;1480;51.456;6.670;2022-10-03T09:17:07;9.23;;;5.70;;
2940;SDS011;1480;51.456;6.670;2022-10-03T09:20:00;11.40;;;5.37;;
2940;SDS011;1480;51.456;6.670;2022-10-03T09:22:58;11.77;;;5.90;;
2940;SDS011;1480;51.456;6.670;2022-10-03T09:25:36;8.97;;;5.00;;
2940;SDS011;1480;51.456;6.670;2022-10-03T09:28:36;20.17;;;5.40;;
2940;SDS011;1480;51.456;6.670;2022-10-03T09:34:35;7.50;;;3.40;;
2940;SDS011;1480;51.456;6.670;2022-10-03T09:37:25;7.83;;;3.70;;
2940;SDS011;1480;51.456;6.670;2022-10-03T09:40:37;9.40;;;4.10;;
2940;SDS011;1480;51.456;6.670;2022-10-03T09:43:37;7.80;;;3.90;;
2940;SDS011;1480;51.456;6.670;2022-10-03T09:46:32;11.03;;;3.80;;
2940;SDS011;1480;51.456;6.670;2022-10-03T09:49:40;10.63;;;3.60;;
2940;SDS011;1480;51.456;6.670;2022-10-03T09:52:30;8.17;;;3.37;;
2940;SDS011;1480;51.456;6.670;2022-10-03T09:55:29;7.20;;;2.53;;
2940;SDS011;1480;51.456;6.670;2022-10-03T10:01:20;6.07;;;3.67;;
2940;SDS011;1480;51.456;6.670;2022-10-03T10:04:06;6.47;;;2.50;;
2940;SDS011;1480;51.456;6.670;2022-10-03T10:07:09;11.63;;;3.70;;
2940;SDS011;1480;51.456;6.670;2022-10-03T10:13:06;9.10;;;2.70;;
2940;SDS011;1480;51.456;6.670;2022-10-03T10:18:51;12.57;;;3.57;;
2940;SDS011;1480;51.456;6.670;2022-10-03T10:21:48;10.57;;;2.80;;
2940;SDS011;1480;51.456;6.670;2022-10-03T10:34:04;12.33;;;2.20;;
2940;SDS011;1480;51.456;6.670;2022-10-03T10:40:09;6.20;;;1.63;;
2940;SDS011;1480;51.456;6.670;2022-10-03T10:43:20;6.40;;;2.00;;
2940;SDS011;1480;51.456;6.670;2022-10-03T10:52:30;9.07;;;1.83;;
2940;SDS011;1480;51.456;6.670;2022-10-03T10:55:36;5.30;;;1.60;;
2940;SDS011;1480;51.456;6.670;2022-10-03T11:01:56;7.50;;;2.10;;
2940;SDS011;1480;51.456;6.670;2022-10-03T11:14:23;6.33;;;2.10;;
2940;SDS011;1480;51.456;6.670;2022-10-03T11:17:26;5.23;;;1.60;;
2940;SDS011;1480;51.456;6.670;2022-10-03T11:23:31;7.80;;;1.87;;
2940;SDS011;1480;51.456;6.670;2022-10-03T11:35:54;4.40;;;1.80;;
2940;SDS011;1480;51.456;6.670;2022-10-03T11:38:46;3.47;;;1.30;;
2940;SDS011;1480;51.456;6.670;2022-10-03T11:41:20;6.80;;;1.70;;
2940;SDS011;1480;51.456;6.670;2022-10-03T11:44:04;5.17;;;1.50;;
2940;SDS011;1480;51.456;6.670;2022-10-03T11:46:48;4.77;;;1.60;;
2940;SDS011;1480;51.456;6.670;2022-10-03T11:49:42;6.27;;;1.80;;
2940;SDS011;1480;51.456;6.670;2022-10-03T11:52:41;5.87;;;1.80;;
2940;SDS011;1480;51.456;6.670;2022-10-03T11:55:18;6.40;;;1.50;;
2940;SDS011;1480;51.456;6.670;2022-10-03T11:57:53;4.90;;;1.47;;
2940;SDS011;1480;51.456;6.670;2022-10-03T12:00:30;6.70;;;1.70;;
2940;SDS011;1480;51.456;6.670;2022-10-03T12:05:51;3.83;;;1.50;;
2940;SDS011;1480;51.456;6.670;2022-10-03T12:08:43;6.37;;;1.37;;
2940;SDS011;1480;51.456;6.670;2022-10-03T12:11:22;3.87;;;1.60;;
2940;SDS011;1480;51.456;6.670;2022-10-03T12:14:17;5.63;;;1.90;;
2940;SDS011;1480;51.456;6.670;2022-10-03T12:19:49;4.40;;;1.30;;
2940;SDS011;1480;51.456;6.670;2022-10-03T12:22:31;4.50;;;1.37;;
2940;SDS011;1480;51.456;6.670;2022-10-03T12:25:12;4.07;;;1.57;;
2940;SDS011;1480;51.456;6.670;2022-10-03T12:27:47;6.53;;;1.77;;
2940;SDS011;1480;51.456;6.670;2022-10-03T12:30:22;18.47;;;1.83;;
2940;SDS011;1480;51.456;6.670;2022-10-03T12:33:02;5.30;;;1.63;;
2940;SDS011;1480;51.456;6.670;2022-10-03T12:35:41;7.40;;;1.77;;
2940;SDS011;1480;51.456;6.670;2022-10-03T12:38:18;6.37;;;1.10;;
2940;SDS011;1480;51.456;6.670;2022-10-03T12:40:53;8.13;;;1.63;;
2940;SDS011;1480;51.456;6.670;2022-10-03T12:43:32;4.63;;;1.50;;
2940;SDS011;1480;51.456;6.670;2022-10-03T12:46:09;6.33;;;1.50;;
2940;SDS011;1480;51.456;6.670;2022-10-03T12:48:43;5.00;;;1.20;;
2940;SDS011;1480;51.456;6.670;2022-10-03T12:51:16;4.90;;;1.73;;
2940;SDS011;1480;51.456;6.670;2022-10-03T12:53:59;6.20;;;1.13;;
2940;SDS011;1480;51.456;6.670;2022-10-03T12:56:37;3.90;;;1.10;;
2940;SDS011;1480;51.456;6.670;2022-10-03T12:59:12;5.83;;;1.47;;
2940;SDS011;1480;51.456;6.670;2022-10-03T13:01:56;13.10;;;2.90;;
2940;SDS011;1480;51.456;6.670;2022-10-03T13:04:41;3.93;;;1.50;;
2940;SDS011;1480;51.456;6.670;2022-10-03T13:07:22;4.20;;;1.50;;
2940;SDS011;1480;51.456;6.670;2022-10-03T13:10:05;4.57;;;1.20;;
2940;SDS011;1480;51.456;6.670;2022-10-03T13:12:42;4.10;;;1.50;;
2940;SDS011;1480;51.456;6.670;2022-10-03T13:18:17;6.03;;;1.23;;
2940;SDS011;1480;51.456;6.670;2022-10-03T13:21:02;4.97;;;1.40;;
2940;SDS011;1480;51.456;6.670;2022-10-03T13:23:39;4.50;;;1.20;;
2940;SDS011;1480;51.456;6.670;2022-10-03T13:26:13;3.63;;;1.33;;
2940;SDS011;1480;51.456;6.670;2022-10-03T13:31:39;6.50;;;1.50;;
2940;SDS011;1480;51.456;6.670;2022-10-03T13:34:26;11.33;;;1.87;;
2940;SDS011;1480;51.456;6.670;2022-10-03T13:36:56;5.40;;;1.60;;
2940;SDS011;1480;51.456;6.670;2022-10-03T13:39:36;5.73;;;1.43;;
2940;SDS011;1480;51.456;6.670;2022-10-03T13:42:11;6.13;;;1.70;;
2940;SDS011;1480;51.456;6.670;2022-10-03T13:44:44;5.33;;;1.20;;
2940;SDS011;1480;51.456;6.670;2022-10-03T13:47:21;9.00;;;1.30;;
2940;SDS011;1480;51.456;6.670;2022-10-03T13:49:54;8.33;;;1.53;;
2940;SDS011;1480;51.456;6.670;2022-10-03T13:52:29;4.93;;;1.60;;
2940;SDS011;1480;51.456;6.670;2022-10-03T13:55:11;4.60;;;1.33;;
2940;SDS011;1480;51.456;6.670;2022-10-03T13:57:46;10.00;;;1.60;;
2940;SDS011;1480;51.456;6.670;2022-10-03T14:00:23;3.43;;;2.00;;
2940;SDS011;1480;51.456;6.670;2022-10-03T14:02:58;5.33;;;1.57;;
2940;SDS011;1480;51.456;6.670;2022-10-03T14:05:44;2.40;;;1.20;;
2940;SDS011;1480;51.456;6.670;2022-10-03T14:08:26;4.40;;;1.30;;
2940;SDS011;1480;51.456;6.670;2022-10-03T14:14:02;4.57;;;1.40;;
2940;SDS011;1480;51.456;6.670;2022-10-03T14:16:40;4.80;;;1.20;;
2940;SDS011;1480;51.456;6.670;2022-10-03T14:19:15;2.80;;;1.37;;
2940;SDS011;1480;51.456;6.670;2022-10-03T14:21:55;5.53;;;1.67;;
2940;SDS011;1480;51.456;6.670;2022-10-03T14:24:33;4.10;;;1.30;;
2940;SDS011;1480;51.456;6.670;2022-10-03T14:27:15;3.97;;;1.50;;
2940;SDS011;1480;51.456;6.670;2022-10-03T14:29:57;5.63;;;1.60;;
2940;SDS011;1480;51.456;6.670;2022-10-03T14:32:32;3.73;;;1.93;;
2940;SDS011;1480;51.456;6.670;2022-10-03T14:35:07;3.43;;;1.23;;
2940;SDS011;1480;51.456;6.670;2022-10-03T14:37:44;5.57;;;1.73;;
2940;SDS011;1480;51.456;6.670;2022-10-03T14:40:18;5.13;;;1.63;;
2940;SDS011;1480;51.456;6.670;2022-10-03T14:43:05;5.37;;;1.90;;
2940;SDS011;1480;51.456;6.670;2022-10-03T14:45:47;4.50;;;1.40;;
2940;SDS011;1480;51.456;6.670;2022-10-03T14:48:16;3.90;;;1.50;;
2940;SDS011;1480;51.456;6.670;2022-10-03T14:50:47;3.63;;;1.67;;
2940;SDS011;1480;51.456;6.670;2022-10-03T14:53:19;5.20;;;1.63;;
2940;SDS011;1480;51.456;6.670;2022-10-03T14:55:52;4.40;;;2.13;;
2940;SDS011;1480;51.456;6.670;2022-10-03T14:58:25;8.10;;;1.70;;
2940;SDS011;1480;51.456;6.670;2022-10-03T15:01:01;5.23;;;1.77;;
2940;SDS011;1480;51.456;6.670;2022-10-03T15:03:35;6.87;;;1.93;;
2940;SDS011;1480;51.456;6.670;2022-10-03T15:06:29;4.43;;;1.40;;
2940;SDS011;1480;51.456;6.670;2022-10-03T15:08:59;4.13;;;1.00;;
2940;SDS011;1480;51.456;6.670;2022-10-03T15:11:30;2.33;;;1.20;;
2940;SDS011;1480;51.456;6.670;2022-10-03T15:14:01;6.37;;;1.63;;
2940;SDS011;1480;51.456;6.670;2022-10-03T15:16:31;6.30;;;2.20;;
2940;SDS011;1480;51.456;6.670;2022-10-03T15:19:02;3.43;;;1.30;;
2940;SDS011;1480;51.456;6.670;2022-10-03T15:21:40;3.87;;;1.20;;
2940;SDS011;1480;51.456;6.670;2022-10-03T15:24:09;3.87;;;1.13;;
2940;SDS011;1480;51.456;6.670;2022-10-03T15:26:46;5.77;;;2.00;;
2940;SDS011;1480;51.456;6.670;2022-10-03T15:29:18;4.93;;;1.90;;
2940;SDS011;1480;51.456;6.670;2022-10-03T15:31:46;9.97;;;1.80;;
2940;SDS011;1480;51.456;6.670;2022-10-03T15:34:14;4.40;;;1.63;;
2940;SDS011;1480;51.456;6.670;2022-10-03T15:36:46;8.70;;;2.07;;
2940;SDS011;1480;51.456;6.670;2022-10-03T15:39:17;8.60;;;2.10;;
2940;SDS011;1480;51.456;6.670;2022-10-03T15:41:50;4.00;;;1.43;;
2940;SDS011;1480;51.456;6.670;2022-10-03T15:44:22;4.40;;;1.43;;
2940;SDS011;1480;51.456;6.670;2022-10-03T15:46:57;6.43;;;1.50;;
2940;SDS011;1480;51.456;6.670;2022-10-03T15:49:29;6.50;;;1.33;;
2940;SDS011;1480;51.456;6.670;2022-10-03T15:52:04;3.63;;;1.50;;
2940;SDS011;1480;51.456;6.670;2022-10-03T15:54:36;6.53;;;1.67;;
2940;SDS011;1480;51.456;6.670;2022-10-03T15:57:03;7.20;;;2.17;;
2940;SDS011;1480;51.456;6.670;2022-10-03T15:59:33;4.67;;;1.60;;
2940;SDS011;1480;51.456;6.670;2022-10-03T16:02:05;3.37;;;1.53;;
2940;SDS011;1480;51.456;6.670;2022-10-03T16:04:43;4.07;;;1.73;;
2940;SDS011;1480;51.456;6.670;2022-10-03T16:07:17;4.47;;;1.50;;
2940;SDS011;1480;51.456;6.670;2022-10-03T16:09:50;4.20;;;1.40;;
2940;SDS011;1480;51.456;6.670;2022-10-03T16:15:16;4.73;;;2.20;;
2940;SDS011;1480;51.456;6.670;2022-10-03T16:17:47;11.20;;;2.53;;
2940;SDS011;1480;51.456;6.670;2022-10-03T16:20:21;6.47;;;2.73;;
2940;SDS011;1480;51.456;6.670;2022-10-03T16:22:51;4.33;;;2.17;;
2940;SDS011;1480;51.456;6.670;2022-10-03T16:25:20;7.17;;;2.30;;
2940;SDS011;1480;51.456;6.670;2022-10-03T16:27:52;5.07;;;1.77;;
2940;SDS011;1480;51.456;6.670;2022-10-03T16:30:25;2.70;;;1.80;;
2940;SDS011;1480;51.456;6.670;2022-10-03T16:32:59;8.17;;;2.43;;
2940;SDS011;1480;51.456;6.670;2022-10-03T16:35:31;5.07;;;2.03;;
2940;SDS011;1480;51.456;6.670;2022-10-03T16:38:02;3.17;;;1.73;;
2940;SDS011;1480;51.456;6.670;2022-10-03T16:40:33;5.17;;;2.37;;
2940;SDS011;1480;51.456;6.670;2022-10-03T16:43:02;4.30;;;1.70;;
2940;SDS011;1480;51.456;6.670;2022-10-03T16:45:37;7.23;;;2.20;;
2940;SDS011;1480;51.456;6.670;2022-10-03T16:48:10;4.70;;;1.53;;
2940;SDS011;1480;51.456;6.670;2022-10-03T16:51:00;4.73;;;2.00;;
2940;SDS011;1480;51.456;6.670;2022-10-03T16:53:28;4.57;;;1.83;;
2940;SDS011;1480;51.456;6.670;2022-10-03T16:55:58;6.40;;;2.30;;
2940;SDS011;1480;51.456;6.670;2022-10-03T16:58:31;4.93;;;1.70;;
2940;SDS011;1480;51.456;6.670;2022-10-03T17:01:05;5.83;;;3.53;;
2940;SDS011;1480;51.456;6.670;2022-10-03T17:03:35;7.23;;;4.83;;
2940;SDS011;1480;51.456;6.670;2022-10-03T17:06:06;4.17;;;3.10;;
2940;SDS011;1480;51.456;6.670;2022-10-03T17:08:46;6.90;;;3.53;;
2940;SDS011;1480;51.456;6.670;2022-10-03T17:11:17;8.37;;;3.80;;
2940;SDS011;1480;51.456;6.670;2022-10-03T17:13:49;7.60;;;3.67;;
2940;SDS011;1480;51.456;6.670;2022-10-03T17:16:23;6.37;;;2.40;;
2940;SDS011;1480;51.456;6.670;2022-10-03T17:19:03;4.60;;;2.83;;
2940;SDS011;1480;51.456;6.670;2022-10-03T17:21:39;3.70;;;2.27;;
2940;SDS011;1480;51.456;6.670;2022-10-03T17:24:10;3.70;;;2.50;;
2940;SDS011;1480;51.456;6.670;2022-10-03T17:26:41;6.43;;;2.83;;
2940;SDS011;1480;51.456;6.670;2022-10-03T17:29:12;10.63;;;4.17;;
2940;SDS011;1480;51.456;6.670;2022-10-03T17:31:47;8.93;;;2.80;;
2940;SDS011;1480;51.456;6.670;2022-10-03T17:34:21;11.23;;;4.20;;
2940;SDS011;1480;51.456;6.670;2022-10-03T17:37:03;7.37;;;4.57;;
2940;SDS011;1480;51.456;6.670;2022-10-03T17:39:52;8.10;;;4.57;;
2940;SDS011;1480;51.456;6.670;2022-10-03T17:42:25;7.40;;;4.17;;
2940;SDS011;1480;51.456;6.670;2022-10-03T17:44:58;6.37;;;4.47;;
2940;SDS011;1480;51.456;6.670;2022-10-03T17:47:42;7.73;;;4.50;;
2940;SDS011;1480;51.456;6.670;2022-10-03T17:50:19;6.03;;;4.43;;
2940;SDS011;1480;51.456;6.670;2022-10-03T17:52:50;16.60;;;10.60;;
2940;SDS011;1480;51.456;6.670;2022-10-03T17:55:25;23.50;;;16.90;;
2940;SDS011;1480;51.456;6.670;2022-10-03T17:57:57;11.80;;;7.23;;
2940;SDS011;1480;51.456;6.670;2022-10-03T18:00:29;9.60;;;6.53;;
2940;SDS011;1480;51.456;6.670;2022-10-03T18:03:03;9.33;;;6.47;;
2940;SDS011;1480;51.456;6.670;2022-10-03T18:05:35;6.03;;;4.87;;
2940;SDS011;1480;51.456;6.670;2022-10-03T18:08:10;12.10;;;5.53;;
2940;SDS011;1480;51.456;6.670;2022-10-03T18:10:45;7.67;;;5.30;;
2940;SDS011;1480;51.456;6.670;2022-10-03T18:13:15;11.97;;;8.23;;
2940;SDS011;1480;51.456;6.670;2022-10-03T18:21:50;12.23;;;9.53;;
2940;SDS011;1480;51.456;6.670;2022-10-03T18:30:20;12.40;;;9.03;;
2940;SDS011;1480;51.456;6.670;2022-10-03T18:32:54;12.80;;;10.23;;
2940;SDS011;1480;51.456;6.670;2022-10-03T18:35:25;12.07;;;7.70;;
2940;SDS011;1480;51.456;6.670;2022-10-03T18:38:04;10.60;;;7.90;;
2940;SDS011;1480;51.456;6.670;2022-10-03T18:40:39;12.13;;;8.00;;
2940;SDS011;1480;51.456;6.670;2022-10-03T18:43:20;10.30;;;7.27;;
2940;SDS011;1480;51.456;6.670;2022-10-03T18:45:52;15.93;;;9.57;;
2940;SDS011;1480;51.456;6.670;2022-10-03T18:48:24;12.57;;;8.70;;
2940;SDS011;1480;51.456;6.670;2022-10-03T18:50:56;13.70;;;9.23;;
2940;SDS011;1480;51.456;6.670;2022-10-03T18:53:32;15.33;;;9.73;;
2940;SDS011;1480;51.456;6.670;2022-10-03T18:56:04;12.70;;;7.87;;
2940;SDS011;1480;51.456;6.670;2022-10-03T18:58:35;18.23;;;9.10;;
2940;SDS011;1480;51.456;6.670;2022-10-03T19:01:04;12.10;;;9.03;;
2940;SDS011;1480;51.456;6.670;2022-10-03T19:03:39;14.47;;;9.20;;
2940;SDS011;1480;51.456;6.670;2022-10-03T19:06:12;16.80;;;11.03;;
2940;SDS011;1480;51.456;6.670;2022-10-03T19:08:49;10.13;;;8.90;;
2940;SDS011;1480;51.456;6.670;2022-10-03T19:15:10;14.57;;;8.90;;
2940;SDS011;1480;51.456;6.670;2022-10-03T19:17:47;13.17;;;9.10;;
2940;SDS011;1480;51.456;6.670;2022-10-03T19:20:22;11.80;;;8.80;;
2940;SDS011;1480;51.456;6.670;2022-10-03T19:22:57;12.53;;;9.33;;
2940;SDS011;1480;51.456;6.670;2022-10-03T19:25:30;15.33;;;9.53;;
2940;SDS011;1480;51.456;6.670;2022-10-03T19:28:03;12.70;;;9.57;;
2940;SDS011;1480;51.456;6.670;2022-10-03T19:30:38;11.57;;;8.90;;
2940;SDS011;1480;51.456;6.670;2022-10-03T19:33:11;14.47;;;10.90;;
2940;SDS011;1480;51.456;6.670;2022-10-03T19:35:44;14.57;;;10.83;;
2940;SDS011;1480;51.456;6.670;2022-10-03T19:38:15;11.93;;;9.97;;
2940;SDS011;1480;51.456;6.670;2022-10-03T19:40:52;13.30;;;10.30;;
2940;SDS011;1480;51.456;6.670;2022-10-03T19:43:33;17.60;;;11.57;;